createdAt,value
2022-12-04T00:00:13.621Z,0.00
2022-12-04T00:01:13.606Z,0.00
2022-12-04T00:02:13.606Z,0.00
2022-12-04T00:03:13.708Z,0.00
2022-12-04T00:04:13.678Z,0.00
2022-12-04T00:05:13.650Z,0.00
2022-12-04T00:06:13.577Z,0.00
2022-12-04T00:07:13.558Z,0.00
2022-12-04T00:08:13.630Z,0.00
2022-12-04T00:09:13.522Z,0.00
2022-12-04T00:10:13.535Z,0.00
2022-12-04T00:11:13.507Z,0.00
2022-12-04T00:12:13.495Z,0.00
2022-12-04T00:13:13.476Z,0.00
2022-12-04T00:14:13.472Z,0.00
2022-12-04T00:15:25.134Z,0.00
2022-12-04T00:16:14.530Z,0.00
2022-12-04T00:17:13.438Z,0.00
2022-12-04T00:18:13.426Z,0.00
2022-12-04T00:19:13.407Z,0.00
2022-12-04T00:20:13.406Z,0.00
2022-12-04T00:21:13.403Z,0.00
2022-12-04T00:22:13.406Z,0.00
2022-12-04T00:23:13.373Z,0.00
2022-12-04T00:24:13.365Z,0.00
2022-12-04T00:25:13.346Z,0.00
2022-12-04T00:26:13.335Z,0.00
2022-12-04T00:27:13.345Z,0.00
2022-12-04T00:28:13.315Z,0.00
2022-12-04T00:29:13.300Z,0.00
2022-12-04T00:30:13.292Z,0.00
2022-12-04T00:31:13.395Z,0.00
2022-12-04T00:32:13.290Z,0.00
2022-12-04T00:33:13.253Z,0.00
2022-12-04T00:34:13.251Z,0.00
2022-12-04T00:35:13.265Z,0.00
2022-12-04T00:36:13.230Z,0.00
2022-12-04T00:37:13.221Z,0.00
2022-12-04T00:38:13.223Z,0.00
2022-12-04T00:39:13.227Z,0.00
2022-12-04T00:40:13.185Z,0.00
2022-12-04T00:41:13.181Z,0.00
2022-12-04T00:42:13.158Z,0.00
2022-12-04T00:43:13.155Z,0.00
2022-12-04T00:44:13.138Z,0.00
2022-12-04T00:45:13.124Z,0.00
2022-12-04T00:46:13.206Z,0.00
2022-12-04T00:47:13.107Z,0.00
2022-12-04T00:48:13.117Z,0.00
2022-12-04T00:49:13.098Z,0.00
2022-12-04T00:50:13.091Z,0.00
2022-12-04T00:51:13.065Z,0.00
2022-12-04T00:52:13.054Z,0.00
2022-12-04T00:53:13.040Z,0.00
2022-12-04T00:54:13.079Z,0.00
2022-12-04T00:55:13.030Z,0.00
2022-12-04T00:56:13.005Z,0.00
2022-12-04T00:57:13.008Z,0.00
2022-12-04T00:58:12.985Z,0.00
2022-12-04T00:59:12.977Z,0.00
2022-12-04T01:00:12.966Z,0.00
2022-12-04T01:01:12.993Z,0.00
2022-12-04T01:02:12.947Z,0.00
2022-12-04T01:03:13.035Z,0.00
2022-12-04T01:04:12.919Z,0.00
2022-12-04T01:05:12.908Z,0.00
2022-12-04T01:06:12.910Z,0.00
2022-12-04T01:07:12.910Z,0.00
2022-12-04T01:08:13.047Z,0.00
2022-12-04T01:09:12.863Z,0.00
2022-12-04T01:10:12.867Z,0.00
2022-12-04T01:11:12.841Z,0.00
2022-12-04T01:12:17.560Z,0.00
2022-12-04T01:13:13.854Z,0.00
2022-12-04T01:14:12.821Z,0.00
2022-12-04T01:15:12.804Z,0.00
2022-12-04T01:16:12.806Z,0.00
2022-12-04T01:17:12.774Z,0.00
2022-12-04T01:18:12.789Z,0.00
2022-12-04T01:19:19.839Z,0.00
2022-12-04T01:20:12.745Z,0.00
2022-12-04T01:21:12.737Z,0.00
2022-12-04T01:22:12.722Z,0.00
2022-12-04T01:23:12.729Z,0.00
2022-12-04T01:24:12.705Z,0.00
2022-12-04T01:25:12.694Z,0.00
2022-12-04T01:26:12.689Z,0.00
2022-12-04T01:27:12.662Z,0.00
2022-12-04T01:28:18.656Z,0.00
2022-12-04T01:29:13.768Z,0.00
2022-12-04T01:30:12.637Z,0.00
2022-12-04T01:31:12.668Z,0.00
2022-12-04T01:32:12.755Z,0.00
2022-12-04T01:33:12.609Z,0.00
2022-12-04T01:34:12.598Z,0.00
2022-12-04T01:35:12.601Z,0.00
2022-12-04T01:36:12.573Z,0.00
2022-12-04T01:37:12.555Z,0.00
2022-12-04T01:38:12.578Z,0.00
2022-12-04T01:39:12.529Z,0.00
2022-12-04T01:40:12.534Z,0.00
2022-12-04T01:41:12.522Z,0.00
2022-12-04T01:42:12.511Z,0.00
2022-12-04T01:43:12.517Z,0.00
2022-12-04T01:44:12.496Z,0.00
2022-12-04T01:45:12.494Z,0.00
2022-12-04T01:46:12.596Z,0.00
2022-12-04T01:47:12.452Z,0.00
2022-12-04T01:48:12.466Z,0.00
2022-12-04T01:49:12.425Z,0.00
2022-12-04T01:50:12.418Z,0.00
2022-12-04T01:51:12.420Z,0.00
2022-12-04T01:52:12.399Z,0.00
2022-12-04T01:53:12.388Z,0.00
2022-12-04T01:54:12.391Z,0.00
2022-12-04T01:55:12.360Z,0.00
2022-12-04T01:56:12.352Z,0.00
2022-12-04T01:57:12.337Z,0.00
2022-12-04T01:58:12.357Z,0.00
2022-12-04T01:59:12.339Z,0.00
2022-12-04T02:00:12.303Z,0.00
2022-12-04T02:01:12.369Z,0.00
2022-12-04T02:02:12.407Z,0.00
2022-12-04T02:03:12.391Z,0.00
2022-12-04T02:04:12.279Z,0.00
2022-12-04T02:05:12.255Z,0.00
2022-12-04T02:06:12.243Z,0.00
2022-12-04T02:07:12.255Z,0.00
2022-12-04T02:08:12.298Z,0.00
2022-12-04T02:09:12.206Z,0.00
2022-12-04T02:10:12.202Z,0.00
2022-12-04T02:11:12.196Z,0.00
2022-12-04T02:12:12.188Z,0.00
2022-12-04T02:13:12.174Z,0.00
2022-12-04T02:14:12.181Z,0.00
2022-12-04T02:15:12.171Z,0.00
2022-12-04T02:16:12.218Z,0.00
2022-12-04T02:17:12.153Z,0.00
2022-12-04T02:18:12.141Z,0.00
2022-12-04T02:19:12.105Z,0.00
2022-12-04T02:20:12.088Z,0.00
2022-12-04T02:21:12.077Z,0.00
2022-12-04T02:22:12.087Z,0.00
2022-12-04T02:23:12.062Z,0.00
2022-12-04T02:24:12.057Z,0.00
2022-12-04T02:25:12.049Z,0.00
2022-12-04T02:26:12.024Z,0.00
2022-12-04T02:27:12.014Z,0.00
2022-12-04T02:28:12.024Z,0.00
2022-12-04T02:29:11.993Z,0.00
2022-12-04T02:30:11.977Z,0.00
2022-12-04T02:31:12.049Z,0.00
2022-12-04T02:32:11.961Z,0.00
2022-12-04T02:33:11.993Z,0.00
2022-12-04T02:34:11.937Z,0.00
2022-12-04T02:35:11.924Z,0.00
2022-12-04T02:36:11.931Z,0.00
2022-12-04T02:37:11.904Z,0.00
2022-12-04T02:38:11.919Z,0.00
2022-12-04T02:39:11.879Z,0.00
2022-12-04T02:40:11.878Z,0.00
2022-12-04T02:41:11.858Z,0.00
2022-12-04T02:42:11.862Z,0.00
2022-12-04T02:43:11.845Z,0.00
2022-12-04T02:44:11.836Z,0.00
2022-12-04T02:45:11.818Z,0.00
2022-12-04T02:46:11.886Z,0.00
2022-12-04T02:47:11.794Z,0.00
2022-12-04T02:48:11.787Z,0.00
2022-12-04T02:49:11.799Z,0.00
2022-12-04T02:50:11.765Z,0.00
2022-12-04T02:51:11.761Z,0.00
2022-12-04T02:52:11.756Z,0.00
2022-12-04T02:53:11.724Z,0.00
2022-12-04T02:54:11.725Z,0.00
2022-12-04T02:55:11.706Z,0.00
2022-12-04T02:56:11.699Z,0.00
2022-12-04T02:57:11.693Z,0.00
2022-12-04T02:58:11.696Z,0.00
2022-12-04T02:59:11.662Z,0.00
2022-12-04T03:00:11.672Z,0.00
2022-12-04T03:01:11.719Z,0.00
2022-12-04T03:02:11.739Z,0.00
2022-12-04T03:03:11.624Z,0.00
2022-12-04T03:04:11.629Z,0.00
2022-12-04T03:05:11.628Z,0.00
2022-12-04T03:06:11.601Z,0.00
2022-12-04T03:07:11.596Z,0.00
2022-12-04T03:08:11.633Z,0.00
2022-12-04T03:09:11.552Z,0.00
2022-12-04T03:10:11.542Z,0.00
2022-12-04T03:11:11.528Z,0.00
2022-12-04T03:12:11.522Z,0.00
2022-12-04T03:13:11.534Z,0.00
2022-12-04T03:14:11.494Z,0.00
2022-12-04T03:15:11.488Z,0.00
2022-12-04T03:16:11.495Z,0.00
2022-12-04T03:17:11.523Z,0.00
2022-12-04T03:18:11.449Z,0.00
2022-12-04T03:19:12.242Z,0.00
2022-12-04T03:20:11.443Z,0.00
2022-12-04T03:21:11.449Z,0.00
2022-12-04T03:22:11.420Z,0.00
2022-12-04T03:23:11.405Z,0.00
2022-12-04T03:24:11.421Z,0.00
2022-12-04T03:25:11.490Z,0.00
2022-12-04T03:26:11.397Z,0.00
2022-12-04T03:27:11.359Z,0.00
2022-12-04T03:28:11.344Z,0.00
2022-12-04T03:29:11.346Z,0.00
2022-12-04T03:30:11.329Z,0.00
2022-12-04T03:31:11.415Z,0.00
2022-12-04T03:32:11.304Z,0.00
2022-12-04T03:33:11.302Z,0.00
2022-12-04T03:34:11.282Z,0.00
2022-12-04T03:35:11.278Z,0.00
2022-12-04T03:36:11.275Z,0.00
2022-12-04T03:37:11.278Z,0.00
2022-12-04T03:38:11.236Z,0.00
2022-12-04T03:39:11.223Z,0.00
2022-12-04T03:40:11.217Z,0.00
2022-12-04T03:41:11.223Z,0.00
2022-12-04T03:42:11.192Z,0.00
2022-12-04T03:43:11.187Z,0.00
2022-12-04T03:44:11.167Z,0.00
2022-12-04T03:45:11.175Z,0.00
2022-12-04T03:46:11.247Z,0.00
2022-12-04T03:47:11.134Z,0.00
2022-12-04T03:48:11.121Z,0.00
2022-12-04T03:49:11.133Z,0.00
2022-12-04T03:50:11.124Z,0.00
2022-12-04T03:51:11.117Z,0.00
2022-12-04T03:52:11.091Z,0.00
2022-12-04T03:53:11.092Z,0.00
2022-12-04T03:54:11.057Z,0.00
2022-12-04T03:55:11.063Z,0.00
2022-12-04T03:56:11.049Z,0.00
2022-12-04T03:57:11.040Z,0.00
2022-12-04T03:58:11.018Z,0.00
2022-12-04T03:59:11.016Z,0.00
2022-12-04T04:00:10.994Z,0.00
2022-12-04T04:01:11.052Z,0.00
2022-12-04T04:02:11.036Z,0.00
2022-12-04T04:03:11.038Z,0.00
2022-12-04T04:04:10.944Z,0.00
2022-12-04T04:05:10.966Z,0.00
2022-12-04T04:06:10.928Z,0.00
2022-12-04T04:07:10.940Z,0.00
2022-12-04T04:08:10.953Z,0.00
2022-12-04T04:09:10.927Z,0.00
2022-12-04T04:10:10.897Z,0.00
2022-12-04T04:11:10.872Z,0.00
2022-12-04T04:12:10.876Z,0.00
2022-12-04T04:13:10.850Z,0.00
2022-12-04T04:14:10.848Z,0.00
2022-12-04T04:15:10.832Z,0.00
2022-12-04T04:16:10.916Z,0.00
2022-12-04T04:17:10.833Z,0.00
2022-12-04T04:18:10.802Z,0.00
2022-12-04T04:19:10.785Z,0.00
2022-12-04T04:20:10.779Z,0.00
2022-12-04T04:21:10.765Z,0.00
2022-12-04T04:22:10.766Z,0.00
2022-12-04T04:23:10.759Z,0.00
2022-12-04T04:24:10.739Z,0.00
2022-12-04T04:25:10.741Z,0.00
2022-12-04T04:26:10.730Z,0.00
2022-12-04T04:27:10.697Z,0.00
2022-12-04T04:28:10.700Z,0.00
2022-12-04T04:29:10.701Z,0.00
2022-12-04T04:30:10.668Z,0.00
2022-12-04T04:31:10.728Z,0.00
2022-12-04T04:32:10.649Z,0.00
2022-12-04T04:33:10.635Z,0.00
2022-12-04T04:34:10.630Z,0.00
2022-12-04T04:35:10.615Z,0.00
2022-12-04T04:36:10.604Z,0.00
2022-12-04T04:37:10.609Z,0.00
2022-12-04T04:38:10.573Z,0.00
2022-12-04T04:39:10.591Z,0.00
2022-12-04T04:40:10.557Z,0.00
2022-12-04T04:41:10.570Z,0.00
2022-12-04T04:42:10.537Z,0.00
2022-12-04T04:43:10.524Z,0.00
2022-12-04T04:44:10.524Z,0.00
2022-12-04T04:45:10.504Z,0.00
2022-12-04T04:46:10.558Z,0.00
2022-12-04T04:47:10.485Z,0.00
2022-12-04T04:48:10.460Z,0.00
2022-12-04T04:49:10.459Z,0.00
2022-12-04T04:50:10.582Z,0.00
2022-12-04T04:51:10.441Z,0.00
2022-12-04T04:52:10.450Z,0.00
2022-12-04T04:53:10.419Z,0.00
2022-12-04T04:54:10.420Z,0.00
2022-12-04T04:55:10.390Z,0.00
2022-12-04T04:56:10.375Z,0.00
2022-12-04T04:57:10.401Z,0.00
2022-12-04T04:58:10.358Z,0.00
2022-12-04T04:59:10.348Z,0.00
2022-12-04T05:00:10.334Z,0.00
2022-12-04T05:01:10.322Z,0.00
2022-12-04T05:02:10.457Z,0.00
2022-12-04T05:03:10.424Z,0.00
2022-12-04T05:04:10.296Z,0.00
2022-12-04T05:05:10.308Z,0.00
2022-12-04T05:06:10.269Z,0.00
2022-12-04T05:07:10.260Z,0.00
2022-12-04T05:08:10.340Z,0.00
2022-12-04T05:09:10.240Z,0.00
2022-12-04T05:10:10.225Z,0.00
2022-12-04T05:11:10.217Z,0.00
2022-12-04T05:12:10.223Z,0.00
2022-12-04T05:13:10.218Z,0.00
2022-12-04T05:14:10.188Z,0.00
2022-12-04T05:15:10.173Z,0.00
2022-12-04T05:16:10.202Z,0.00
2022-12-04T05:17:12.732Z,0.00
2022-12-04T05:18:10.138Z,0.00
2022-12-04T05:19:10.140Z,0.00
2022-12-04T05:20:10.109Z,0.00
2022-12-04T05:21:10.115Z,0.00
2022-12-04T05:22:10.092Z,0.00
2022-12-04T05:23:10.095Z,0.00
2022-12-04T05:24:10.085Z,0.00
2022-12-04T05:25:10.065Z,0.00
2022-12-04T05:26:10.051Z,0.00
2022-12-04T05:27:10.051Z,0.00
2022-12-04T05:28:10.042Z,0.00
2022-12-04T05:29:10.082Z,0.00
2022-12-04T05:30:10.018Z,0.00
2022-12-04T05:31:10.060Z,0.00
2022-12-04T05:32:09.984Z,0.00
2022-12-04T05:33:09.977Z,0.00
2022-12-04T05:34:09.964Z,0.00
2022-12-04T05:35:11.529Z,0.00
2022-12-04T05:36:09.944Z,0.00
2022-12-04T05:37:09.930Z,0.00
2022-12-04T05:38:09.929Z,0.00
2022-12-04T05:39:09.932Z,0.00
2022-12-04T05:40:09.899Z,0.00
2022-12-04T05:41:09.894Z,0.00
2022-12-04T05:42:09.876Z,0.00
2022-12-04T05:43:09.892Z,0.00
2022-12-04T05:44:09.859Z,0.00
2022-12-04T05:45:09.869Z,0.00
2022-12-04T05:46:09.862Z,0.00
2022-12-04T05:47:09.947Z,0.00
2022-12-04T05:48:09.810Z,0.00
2022-12-04T05:49:09.809Z,0.00
2022-12-04T05:50:09.791Z,0.00
2022-12-04T05:51:09.779Z,0.00
2022-12-04T05:52:09.780Z,0.00
2022-12-04T05:53:09.759Z,0.00
2022-12-04T05:54:09.742Z,0.00
2022-12-04T05:55:09.742Z,0.00
2022-12-04T05:56:09.723Z,0.00
2022-12-04T05:57:09.710Z,0.00
2022-12-04T05:58:09.706Z,0.00
2022-12-04T05:59:09.701Z,0.00
2022-12-04T06:00:09.681Z,0.00
2022-12-04T06:01:09.695Z,0.00
2022-12-04T06:02:09.759Z,0.00
2022-12-04T06:03:09.665Z,0.00
2022-12-04T06:04:09.641Z,0.00
2022-12-04T06:05:09.633Z,0.00
2022-12-04T06:06:09.614Z,0.00
2022-12-04T06:07:09.639Z,0.00
2022-12-04T06:08:09.662Z,0.00
2022-12-04T06:09:09.583Z,0.00
2022-12-04T06:10:09.597Z,0.00
2022-12-04T06:11:09.558Z,0.00
2022-12-04T06:12:09.557Z,0.00
2022-12-04T06:13:09.566Z,0.00
2022-12-04T06:14:09.539Z,0.00
2022-12-04T06:15:09.537Z,0.00
2022-12-04T06:16:09.567Z,0.00
2022-12-04T06:17:09.519Z,0.00
2022-12-04T06:18:09.487Z,0.00
2022-12-04T06:19:09.484Z,0.00
2022-12-04T06:20:11.813Z,0.00
2022-12-04T06:21:09.457Z,0.00
2022-12-04T06:22:09.453Z,0.00
2022-12-04T06:23:09.438Z,0.00
2022-12-04T06:24:09.419Z,0.00
2022-12-04T06:25:09.416Z,0.00
2022-12-04T06:26:09.409Z,0.00
2022-12-04T06:27:27.237Z,0.00
2022-12-04T06:28:10.388Z,0.00
2022-12-04T06:29:09.366Z,0.00
2022-12-04T06:30:09.396Z,0.00
2022-12-04T06:31:09.407Z,0.00
2022-12-04T06:32:09.375Z,0.00
2022-12-04T06:33:09.345Z,0.00
2022-12-04T06:34:09.304Z,0.00
2022-12-04T06:35:09.354Z,0.00
2022-12-04T06:36:09.302Z,0.00
2022-12-04T06:37:09.280Z,0.00
2022-12-04T06:38:09.266Z,0.00
2022-12-04T06:39:11.945Z,0.00
2022-12-04T06:40:10.247Z,0.00
2022-12-04T06:41:09.234Z,0.00
2022-12-04T06:42:09.219Z,0.00
2022-12-04T06:43:09.225Z,0.00
2022-12-04T06:44:09.193Z,0.00
2022-12-04T06:45:09.201Z,0.00
2022-12-04T06:46:09.284Z,0.00
2022-12-04T06:47:09.173Z,0.00
2022-12-04T06:48:09.159Z,0.00
2022-12-04T06:49:09.166Z,0.00
2022-12-04T06:50:09.133Z,0.00
2022-12-04T06:51:09.135Z,0.00
2022-12-04T06:52:09.112Z,0.00
2022-12-04T06:53:09.121Z,0.00
2022-12-04T06:54:09.091Z,0.00
2022-12-04T06:55:09.081Z,0.00
2022-12-04T06:56:09.065Z,0.00
2022-12-04T06:57:09.067Z,0.00
2022-12-04T06:58:09.054Z,0.00
2022-12-04T06:59:09.054Z,0.00
2022-12-04T07:00:09.032Z,0.00
2022-12-04T07:01:09.066Z,0.00
2022-12-04T07:02:09.054Z,0.00
2022-12-04T07:03:08.990Z,0.00
2022-12-04T07:04:08.992Z,0.00
2022-12-04T07:05:08.995Z,0.00
2022-12-04T07:06:08.961Z,0.00
2022-12-04T07:07:08.946Z,0.00
2022-12-04T07:08:09.022Z,0.00
2022-12-04T07:09:08.937Z,0.00
2022-12-04T07:10:08.917Z,4.00
2022-12-04T07:11:08.905Z,4.00
2022-12-04T07:12:08.903Z,4.00
2022-12-04T07:13:08.877Z,0.00
2022-12-04T07:14:08.889Z,0.00
2022-12-04T07:15:08.861Z,0.00
2022-12-04T07:16:08.902Z,0.00
2022-12-04T07:17:08.989Z,0.00
2022-12-04T07:18:08.837Z,4.00
2022-12-04T07:19:08.811Z,4.00
2022-12-04T07:20:15.931Z,4.00
2022-12-04T07:21:08.795Z,4.00
2022-12-04T07:22:08.783Z,4.00
2022-12-04T07:23:08.773Z,4.00
2022-12-04T07:24:08.781Z,4.00
2022-12-04T07:25:08.750Z,4.00
2022-12-04T07:26:08.747Z,4.00
2022-12-04T07:27:08.746Z,4.00
2022-12-04T07:28:08.715Z,8.00
2022-12-04T07:29:08.709Z,4.00
2022-12-04T07:30:14.040Z,8.00
2022-12-04T07:31:09.684Z,4.00
2022-12-04T07:32:08.760Z,8.00
2022-12-04T07:33:08.677Z,8.00
2022-12-04T07:34:08.656Z,8.00
2022-12-04T07:35:08.647Z,8.00
2022-12-04T07:36:08.654Z,8.00
2022-12-04T07:37:08.623Z,8.00
2022-12-04T07:38:08.614Z,8.00
2022-12-04T07:39:08.600Z,12.00
2022-12-04T07:40:08.603Z,12.00
2022-12-04T07:41:08.584Z,8.00
2022-12-04T07:42:08.563Z,12.00
2022-12-04T07:43:08.553Z,12.00
2022-12-04T07:44:08.547Z,12.00
2022-12-04T07:45:08.548Z,16.00
2022-12-04T07:46:08.597Z,12.00
2022-12-04T07:47:08.507Z,12.00
2022-12-04T07:48:08.522Z,16.00
2022-12-04T07:49:08.483Z,16.00
2022-12-04T07:50:08.597Z,16.00
2022-12-04T07:51:08.465Z,20.00
2022-12-04T07:52:08.481Z,24.00
2022-12-04T07:53:08.442Z,24.00
2022-12-04T07:54:08.454Z,24.00
2022-12-04T07:55:08.423Z,24.00
2022-12-04T07:56:08.421Z,24.00
2022-12-04T07:57:08.410Z,28.00
2022-12-04T07:58:08.403Z,28.00
2022-12-04T07:59:08.389Z,28.00
2022-12-04T08:00:08.366Z,24.00
2022-12-04T08:01:08.429Z,24.00
2022-12-04T08:02:08.344Z,28.00
2022-12-04T08:03:08.351Z,28.00
2022-12-04T08:04:08.368Z,28.00
2022-12-04T08:05:08.306Z,28.00
2022-12-04T08:06:08.313Z,32.00
2022-12-04T08:07:08.314Z,28.00
2022-12-04T08:08:08.386Z,28.00
2022-12-04T08:09:10.219Z,28.00
2022-12-04T08:10:08.272Z,32.00
2022-12-04T08:11:08.274Z,32.00
2022-12-04T08:12:08.247Z,36.00
2022-12-04T08:13:08.217Z,32.00
2022-12-04T08:14:08.214Z,36.00
2022-12-04T08:15:08.201Z,40.00
2022-12-04T08:16:08.212Z,40.00
2022-12-04T08:17:08.268Z,40.00
2022-12-04T08:18:08.167Z,44.00
2022-12-04T08:19:08.160Z,48.00
2022-12-04T08:20:08.156Z,48.00
2022-12-04T08:21:08.141Z,48.00
2022-12-04T08:22:08.125Z,48.00
2022-12-04T08:23:08.109Z,52.00
2022-12-04T08:24:08.125Z,52.00
2022-12-04T08:25:08.098Z,48.00
2022-12-04T08:26:08.109Z,48.00
2022-12-04T08:27:08.098Z,52.00
2022-12-04T08:28:08.084Z,52.00
2022-12-04T08:29:08.046Z,48.00
2022-12-04T08:30:08.120Z,48.00
2022-12-04T08:31:08.218Z,52.00
2022-12-04T08:32:08.032Z,52.00
2022-12-04T08:33:08.012Z,52.00
2022-12-04T08:34:07.998Z,56.00
2022-12-04T08:35:07.979Z,52.00
2022-12-04T08:36:07.971Z,60.00
2022-12-04T08:37:07.965Z,60.00
2022-12-04T08:38:07.954Z,68.00
2022-12-04T08:39:07.936Z,68.00
2022-12-04T08:40:07.951Z,68.00
2022-12-04T08:41:07.913Z,76.00
2022-12-04T08:42:07.910Z,72.00
2022-12-04T08:43:07.908Z,72.00
2022-12-04T08:44:07.892Z,72.00
2022-12-04T08:45:07.869Z,64.00
2022-12-04T08:46:07.959Z,68.00
2022-12-04T08:47:07.847Z,72.00
2022-12-04T08:48:07.865Z,68.00
2022-12-04T08:49:07.830Z,68.00
2022-12-04T08:50:07.854Z,68.00
2022-12-04T08:51:07.815Z,76.00
2022-12-04T08:52:07.802Z,76.00
2022-12-04T08:53:07.799Z,76.00
2022-12-04T08:54:07.802Z,84.00
2022-12-04T08:55:07.761Z,92.00
2022-12-04T08:56:07.785Z,96.00
2022-12-04T08:57:07.738Z,104.00
2022-12-04T08:58:07.737Z,100.00
2022-12-04T08:59:07.716Z,96.00
2022-12-04T09:00:07.742Z,92.00
2022-12-04T09:01:07.772Z,92.00
2022-12-04T09:02:07.796Z,88.00
2022-12-04T09:03:07.671Z,88.00
2022-12-04T09:04:07.770Z,84.00
2022-12-04T09:05:07.653Z,80.00
2022-12-04T09:06:07.645Z,84.00
2022-12-04T09:07:07.632Z,88.00
2022-12-04T09:08:07.795Z,96.00
2022-12-04T09:09:07.603Z,96.00
2022-12-04T09:10:07.623Z,100.00
2022-12-04T09:11:07.585Z,100.00
2022-12-04T09:12:07.600Z,108.00
2022-12-04T09:13:07.575Z,108.00
2022-12-04T09:14:07.559Z,112.00
2022-12-04T09:15:07.672Z,108.00
2022-12-04T09:16:07.624Z,104.00
2022-12-04T09:17:07.535Z,100.00
2022-12-04T09:18:07.536Z,96.00
2022-12-04T09:19:07.507Z,88.00
2022-12-04T09:20:08.057Z,88.00
2022-12-04T09:21:07.516Z,92.00
2022-12-04T09:22:07.476Z,96.00
2022-12-04T09:23:07.476Z,104.00
2022-12-04T09:24:07.486Z,116.00
2022-12-04T09:25:07.449Z,116.00
2022-12-04T09:26:07.429Z,124.00
2022-12-04T09:27:12.892Z,132.00
2022-12-04T09:28:08.440Z,136.00
2022-12-04T09:29:07.408Z,120.00
2022-12-04T09:30:07.383Z,112.00
2022-12-04T09:31:07.475Z,108.00
2022-12-04T09:32:07.371Z,108.00
2022-12-04T09:33:07.347Z,112.00
2022-12-04T09:34:07.341Z,112.00
2022-12-04T09:35:07.335Z,112.00
2022-12-04T09:36:07.315Z,108.00
2022-12-04T09:37:07.316Z,116.00
2022-12-04T09:38:07.295Z,120.00
2022-12-04T09:39:07.296Z,124.00
2022-12-04T09:40:07.379Z,128.00
2022-12-04T09:41:07.286Z,132.00
2022-12-04T09:42:07.261Z,132.00
2022-12-04T09:43:07.255Z,112.00
2022-12-04T09:44:07.252Z,108.00
2022-12-04T09:45:07.215Z,108.00
2022-12-04T09:46:07.299Z,100.00
2022-12-04T09:47:07.339Z,100.00
2022-12-04T09:48:07.187Z,92.00
2022-12-04T09:49:07.180Z,92.00
2022-12-04T09:50:07.184Z,96.00
2022-12-04T09:51:07.150Z,104.00
2022-12-04T09:52:07.143Z,104.00
2022-12-04T09:53:07.136Z,108.00
2022-12-04T09:54:07.122Z,112.00
2022-12-04T09:55:07.103Z,116.00
2022-12-04T09:56:07.119Z,120.00
2022-12-04T09:57:07.092Z,112.00
2022-12-04T09:58:07.105Z,108.00
2022-12-04T09:59:07.060Z,96.00
2022-12-04T10:00:07.210Z,96.00
2022-12-04T10:01:07.044Z,88.00
2022-12-04T10:02:07.060Z,92.00
2022-12-04T10:03:07.256Z,96.00
2022-12-04T10:04:07.137Z,104.00
2022-12-04T10:05:06.998Z,104.00
2022-12-04T10:06:06.999Z,104.00
2022-12-04T10:07:06.984Z,108.00
2022-12-04T10:08:07.085Z,104.00
2022-12-04T10:09:06.975Z,104.00
2022-12-04T10:10:06.946Z,100.00
2022-12-04T10:11:06.932Z,100.00
2022-12-04T10:12:06.924Z,92.00
2022-12-04T10:13:06.908Z,88.00
2022-12-04T10:14:06.902Z,92.00
2022-12-04T10:15:06.897Z,92.00
2022-12-04T10:16:06.969Z,88.00
2022-12-04T10:17:06.870Z,88.00
2022-12-04T10:18:06.855Z,88.00
2022-12-04T10:19:06.842Z,92.00
2022-12-04T10:20:06.855Z,100.00
2022-12-04T10:21:06.818Z,108.00
2022-12-04T10:22:06.837Z,120.00
2022-12-04T10:23:10.634Z,128.00
2022-12-04T10:24:07.813Z,136.00
2022-12-04T10:25:06.782Z,140.00
2022-12-04T10:26:06.771Z,136.00
2022-12-04T10:27:06.766Z,128.00
2022-12-04T10:28:06.744Z,124.00
2022-12-04T10:29:06.745Z,120.00
2022-12-04T10:30:06.726Z,108.00
2022-12-04T10:31:06.791Z,108.00
2022-12-04T10:32:06.727Z,120.00
2022-12-04T10:33:06.695Z,132.00
2022-12-04T10:34:06.682Z,136.00
2022-12-04T10:35:06.711Z,144.00
2022-12-04T10:36:06.663Z,144.00
2022-12-04T10:37:06.648Z,156.00
2022-12-04T10:38:06.637Z,168.00
2022-12-04T10:39:06.630Z,176.00
2022-12-04T10:40:06.624Z,176.00
2022-12-04T10:41:10.194Z,160.00
2022-12-04T10:42:07.599Z,156.00
2022-12-04T10:43:06.583Z,152.00
2022-12-04T10:44:06.569Z,152.00
2022-12-04T10:45:06.560Z,140.00
2022-12-04T10:46:06.598Z,132.00
2022-12-04T10:47:06.599Z,140.00
2022-12-04T10:48:06.552Z,148.00
2022-12-04T10:49:06.516Z,156.00
2022-12-04T10:50:06.534Z,156.00
2022-12-04T10:51:06.530Z,160.00
2022-12-04T10:52:06.507Z,164.00
2022-12-04T10:53:10.802Z,168.00
2022-12-04T10:54:07.468Z,160.00
2022-12-04T10:55:06.447Z,152.00
2022-12-04T10:56:06.445Z,148.00
2022-12-04T10:57:06.429Z,140.00
2022-12-04T10:58:06.436Z,136.00
2022-12-04T10:59:06.411Z,124.00
2022-12-04T11:00:06.397Z,136.00
2022-12-04T11:01:06.384Z,144.00
2022-12-04T11:02:07.389Z,148.00
2022-12-04T11:03:06.410Z,160.00
2022-12-04T11:04:06.379Z,168.00
2022-12-04T11:05:06.339Z,168.00
2022-12-04T11:06:06.334Z,168.00
2022-12-04T11:07:06.331Z,148.00
2022-12-04T11:08:06.361Z,148.00
2022-12-04T11:09:06.339Z,144.00
2022-12-04T11:10:06.290Z,148.00
2022-12-04T11:11:06.272Z,140.00
2022-12-04T11:12:06.293Z,148.00
2022-12-04T11:13:06.250Z,144.00
2022-12-04T11:14:06.242Z,160.00
2022-12-04T11:15:06.235Z,156.00
2022-12-04T11:16:06.334Z,160.00
2022-12-04T11:17:06.220Z,148.00
2022-12-04T11:18:06.195Z,148.00
2022-12-04T11:19:06.198Z,152.00
2022-12-04T11:20:06.198Z,144.00
2022-12-04T11:21:06.161Z,136.00
2022-12-04T11:22:06.186Z,132.00
2022-12-04T11:23:06.143Z,140.00
2022-12-04T11:24:06.125Z,156.00
2022-12-04T11:25:06.123Z,152.00
2022-12-04T11:26:06.681Z,152.00
2022-12-04T11:27:06.100Z,156.00
2022-12-04T11:28:06.103Z,156.00
2022-12-04T11:29:06.088Z,148.00
2022-12-04T11:30:06.067Z,144.00
2022-12-04T11:31:06.165Z,128.00
2022-12-04T11:32:08.089Z,116.00
2022-12-04T11:33:06.045Z,108.00
2022-12-04T11:34:06.025Z,108.00
2022-12-04T11:35:06.107Z,116.00
2022-12-04T11:36:06.024Z,116.00
2022-12-04T11:37:06.007Z,108.00
2022-12-04T11:38:05.986Z,124.00
2022-12-04T11:39:05.973Z,144.00
2022-12-04T11:40:05.958Z,156.00
2022-12-04T11:41:05.944Z,160.00
2022-12-04T11:42:05.944Z,148.00
2022-12-04T11:43:05.949Z,152.00
2022-12-04T11:44:05.921Z,148.00
2022-12-04T11:45:05.906Z,144.00
2022-12-04T11:46:05.894Z,136.00
2022-12-04T11:47:06.001Z,132.00
2022-12-04T11:48:05.875Z,152.00
2022-12-04T11:49:05.876Z,168.00
2022-12-04T11:50:05.854Z,172.00
2022-12-04T11:51:05.836Z,176.00
2022-12-04T11:52:05.851Z,192.00
2022-12-04T11:53:05.815Z,180.00
2022-12-04T11:54:05.810Z,164.00
2022-12-04T11:55:05.805Z,156.00
2022-12-04T11:56:05.780Z,140.00
2022-12-04T11:57:05.776Z,124.00
2022-12-04T11:58:05.757Z,116.00
2022-12-04T11:59:05.760Z,128.00
2022-12-04T12:00:05.737Z,140.00
2022-12-04T12:01:05.733Z,160.00
2022-12-04T12:02:05.936Z,176.00
2022-12-04T12:03:05.898Z,180.00
2022-12-04T12:04:05.711Z,180.00
2022-12-04T12:05:05.700Z,164.00
2022-12-04T12:06:05.682Z,140.00
2022-12-04T12:07:05.685Z,132.00
2022-12-04T12:08:05.671Z,128.00
2022-12-04T12:09:05.643Z,132.00
2022-12-04T12:10:05.643Z,132.00
2022-12-04T12:11:05.620Z,144.00
2022-12-04T12:12:05.616Z,160.00
2022-12-04T12:13:05.615Z,160.00
2022-12-04T12:14:05.583Z,160.00
2022-12-04T12:15:05.580Z,164.00
2022-12-04T12:16:05.600Z,160.00
2022-12-04T12:17:05.555Z,152.00
2022-12-04T12:18:05.541Z,144.00
2022-12-04T12:19:05.562Z,132.00
2022-12-04T12:20:05.522Z,124.00
2022-12-04T12:21:05.534Z,112.00
2022-12-04T12:22:06.910Z,96.00
2022-12-04T12:23:05.485Z,120.00
2022-12-04T12:24:05.522Z,148.00
2022-12-04T12:25:05.474Z,156.00
2022-12-04T12:26:05.451Z,144.00
2022-12-04T12:27:05.456Z,132.00
2022-12-04T12:28:05.448Z,124.00
2022-12-04T12:29:05.424Z,116.00
2022-12-04T12:30:05.418Z,104.00
2022-12-04T12:31:06.143Z,100.00
2022-12-04T12:32:05.483Z,108.00
2022-12-04T12:33:05.378Z,112.00
2022-12-04T12:34:05.392Z,112.00
2022-12-04T12:35:05.362Z,112.00
2022-12-04T12:36:05.347Z,120.00
2022-12-04T12:37:05.333Z,116.00
2022-12-04T12:38:05.324Z,104.00
2022-12-04T12:39:05.315Z,100.00
2022-12-04T12:40:05.338Z,92.00
2022-12-04T12:41:05.299Z,84.00
2022-12-04T12:42:05.284Z,88.00
2022-12-04T12:43:05.323Z,92.00
2022-12-04T12:44:05.349Z,96.00
2022-12-04T12:45:05.270Z,100.00
2022-12-04T12:46:05.275Z,104.00
2022-12-04T12:47:05.258Z,104.00
2022-12-04T12:48:05.225Z,100.00
2022-12-04T12:49:05.204Z,92.00
2022-12-04T12:50:05.208Z,96.00
2022-12-04T12:51:28.671Z,100.00
2022-12-04T12:52:06.173Z,96.00
2022-12-04T12:53:05.159Z,108.00
2022-12-04T12:54:05.161Z,112.00
2022-12-04T12:55:05.158Z,116.00
2022-12-04T12:56:05.146Z,112.00
2022-12-04T12:57:05.120Z,112.00
2022-12-04T12:58:05.112Z,112.00
2022-12-04T12:59:05.102Z,108.00
2022-12-04T13:00:05.099Z,104.00